| Station | Date | Time | Temp (°F) | RH (%) | Dew Pt (°F) | Wind Spd (mph) | Wind Dir (°) | Wind Gust (mph) | Latest Rain (In) | Daily Rain (In) | Daily Max Temp (°F) | Daily Min Temp (°F) |
|---|---|---|---|---|---|---|---|---|---|---|---|---|
| Montesol | 9/1/26 | 2230 | 54.5 4.2 | - | - | - | - | - | 0.00 | 0.00 | 68.1 6.9 | 41.9 6.4 |
| Pope Valley (Weeks Lake) | 9/1/26 | 2230 | 57.4 3.3 | 74 8 | 49.3 0.5 | 1.6 1.6 | SSE | 148 | 3.7 3.1 | 0.00 | 0.00 | 74.2 5.9 | 43.5 1.8 |
| Dollarhide Base | 9/1/26 | 2230 | 59.9 1.0 | 77 6 | 52.6 1.1 | 3.9 0.3 | S | 190 | 7.8 1.2 | 0.00 | 0.00 | 78.2 3.2 | 50.9 1.8 |
| Dollarhide 16A Remote | 9/1/26 | 2230 | 59.6 0.1 | 77 4 | 52.5 1.2 | - | - | - | - | - | 77.2 1.7 | 48.4 2.0 |
| Hardin Rd (Eakle) | 9/1/26 | 2230 | 60.8 1.4 | - | - | - | - | - | - | - | 75.7 4.6 | 48.2 0.5 |
| Angwin | 9/1/26 | 2230 | 52.4 0.5 | 90 5 | 49.5 1.0 | 3.3 0.7 | SE | 130 | 8.3 3.2 | 0.00 | 0.00 | 66.6 4.2 | 49.6 2.2 |
| Lower Angwin (Pioneer) | 9/1/26 | 2230 | 54.3 1.4 | - | - | 2.7 0.2 | SW | 230 | 6.9 0.3 | - | - | 68.2 4.5 | 50.9 10.4 |
| Las Posadas (Cal Fire) | 9/1/26 | 2230 | 56.9 1.7 | 81 8 | 51.2 0.9 | 10.8 3.8 | SW | 224 | 18.3 1.7 | 0.00 | 0.00 | 70.5 3.8 | 50.8 0.4 |
| Lower Chiles Valley (Brown) | 9/1/26 | 2230 | 57.3 0.1 | 77 7 | 50.3 2.3 | 0.7 3.5 | ENE | 66 | 2.9 5.7 | 0.00 | 0.00 | 74.0 2.2 | 56.4 4.2 |
| Moss Creek Vineyard/Reservior | 9/1/26 | 2000 | 61.2 0.6 | 63 9 | 48.7 2.8 | - | - | - | 0.00 | 0.00 | 76.3 1.3 | 55.4 5.9 |
| Max | 60.8 | 90 | 52.6 | 10.8 | - | 18.3 | 0.00 | 0.00 | 78.2 | 56.4 | ||
| Avg | 57.0 | 79 | 50.9 | 3.8 | - | 8.0 | 0.00 | - | - | - | ||
| Min | 52.4 | 74 | 49.3 | 0.7 | - | 2.9 | 0.00 | 0.00 | 66.6 | 41.9 |
| Station | Date | Time | Temp (°F) | RH (%) | Dew Pt (°F) | Wind Spd (mph) | Wind Dir (°) | Wind Gust (mph) | Latest Rain (In) | Daily Rain (In) | Daily Max Temp (°F) | Daily Min Temp (°F) |
|---|---|---|---|---|---|---|---|---|---|---|---|---|
| Tenma (North Calistoga) | 9/1/26 | 2230 | 58.0 1.2 | - | - | - | - | - | 0.00 | 0.00 | 77.4 2.5 | 53.9 1.2 |
| Calistoga-Solari | 9/1/26 | 2230 | 58.8 2.2 | 79 6 | 52.2 0.2 | 1.5 0.1 | NNW | 342 | 3.1 0.0 | 0.00 | 0.00 | 74.9 1.6 | 53.6 2.6 |
| Calistoga-North | 9/1/26 | 2230 | 59.6 1.1 | 81 4 | 54.0 0.2 | - | - | - | 0.00 | 0.00 | 77.9 1.8 | 56.0 0.9 |
| Twomey Calistoga | 9/1/26 | 2230 | 58.4 7.0 | 77 11 | 51.2 3.3 | 0.5 0.1 | NW | 313 | 1.5 0.2 | 0.00 | 0.00 | 77.5 4.5 | 52.1 0.6 |
| Paloma | 9/1/26 | 2230 | 58.4 0.1 | 79 4 | 51.8 1.4 | 0.8 2.4 | SSE | 157 | 3.5 4.0 | 0.00 | 0.00 | 78.3 3.0 | 56.4 0.3 |
| Calistoga (Ranch 78) | 9/1/26 | 2230 | 59.9 4.2 | 75 8 | 51.8 1.3 | 1.1 0.3 | NW | 307 | 2.9 0.6 | 0.00 | 0.00 | 76.3 2.6 | 54.7 0.6 |
| Diamond Mtn (Schramsberg) | 9/1/26 | 2230 | 57.6 2.5 | 79 8 | 51.2 0.2 | - | - | - | 0.00 | 0.00 | 72.8 3.4 | 53.7 0.8 |
| Diamond Mtn (McEachran) | 9/1/26 | 2230 | 60.6 3.3 | 76 9 | 52.9 0.3 | - | - | - | - | - | 71.9 7.7 | 54.3 1.2 |
| Deer Park | 9/1/26 | 2230 | 59.3 2.0 | 76 7 | 51.8 0.6 | 1.6 1.9 | WNW | 288 | 4.1 1.4 | 0.00 | 0.00 | 75.4 3.1 | 55.8 1.3 |
| St. Helena-North | 9/1/26 | 2230 | 61.7 2.1 | 69 7 | 51.3 0.6 | 0.7 1.3 | NNW | 334 | 3.1 2.4 | 0.00 | 0.00 | 75.7 4.0 | 54.4 2.5 |
| St. Helena (NVV Office) | 9/1/26 | 2230 | 62.4 2.2 | - | - | 0.7 0.3 | N | 357 | 2.7 1.1 | 0.00 | 0.00 | 77.7 3.2 | 57.2 0.1 |
| Tiara Fria (East St. Helena) | 9/1/26 | 2230 | 61.0 1.2 | 73 6 | 52.2 1.0 | 1.0 1.1 | NNW | 335 | 2.6 3.3 | 0.00 | 0.00 | 76.2 3.1 | 55.6 1.6 |
| Prisoner Winery | 9/1/26 | 2230 | 60.5 3.3 | 74 10 | 52.2 0.1 | 0.8 0.5 | NNE | 13 | 3.4 1.9 | 0.00 | 0.00 | 76.8 4.6 | 53.2 2.8 |
| Rutherford Hill Estate | 9/1/26 | 2230 | 59.6 2.0 | 76 8 | 51.9 0.8 | 0.7 0.7 | SE | 127 | 2.6 2.2 | 0.00 | 0.00 | 78.6 1.6 | 57.1 1.5 |
| Rutherford-North (Mee Ln) | 9/1/26 | 2230 | 59.3 3.2 | 76 5 | 51.9 1.5 | 0.8 0.3 | ENE | 63 | 2.0 0.4 | 0.00 | 0.00 | 76.5 3.2 | 53.1 0.9 |
| Rutherford (STS) | 9/1/26 | 2230 | 57.6 1.9 | 84 6 | 53.0 0.0 | 1.7 1.4 | E | 96 | 3.0 0.6 | 0.00 | 0.00 | 78.6 2.6 | 55.8 0.9 |
| Silver Oak OV | 9/1/26 | 2230 | 61.5 5.1 | 74 10 | 53.2 1.4 | 3.3 2.1 | SW | 214 | 5.8 3.1 | 0.00 | 0.00 | 76.2 1.0 | 58.2 2.2 |
| Oakville-NE (Ranch 88) | 9/1/26 | 2230 | 58.3 0.1 | 70 8 | 48.4 2.8 | 0.0 0.7 | N | 0 | 0.0 4.4 | 0.00 | 0.00 | 77.4 1.8 | 57.5 0.7 |
| Crossroads Ranch | 9/1/26 | 2230 | 62.1 5.4 | 74 9 | 53.6 2.1 | 1.8 0.8 | SW | 227 | 4.8 2.3 | 0.00 | 0.00 | 76.4 1.1 | 58.5 2.1 |
| Oakville | 9/1/26 | 2230 | 62.3 4.2 | 71 9 | 52.9 1.0 | 4.3 3.4 | SSW | 201 | 7.3 5.2 | 0.00 | 0.00 | 76.3 1.0 | 58.8 2.7 |
| To Kalon Remote (TKKE) | 9/1/26 | 2230 | 62.4 2.9 | - | - | - | - | - | - | - | 78.9 1.5 | 58.0 0.8 |
| To Kalon | 9/1/26 | 2230 | 62.1 1.6 | 75 5 | 54.0 0.3 | 1.1 2.1 | SE | 146 | 3.8 5.3 | 0.00 | 0.00 | 76.5 2.3 | 59.5 2.7 |
| To Kalon Remote (TKN5) | 9/1/26 | 2230 | 63.1 2.3 | - | - | - | - | - | - | - | 76.9 3.2 | 60.2 3.0 |
| Jump Rock | 9/1/26 | 2230 | 49.9 6.2 | 87 2 | 46.3 6.7 | 0.3 1.2 | NE | 46 | 1.8 3.1 | 0.00 | 0.00 | 70.0 2.7 | 49.7 5.8 |
| State Lane Ranch | 9/1/26 | 2230 | 61.8 1.3 | 77 5 | 54.6 0.3 | 1.5 1.5 | W | 267 | 5.1 1.2 | 0.00 | 0.00 | 78.3 1.9 | 58.8 2.4 |
| Yountville (Ranch 67) | 9/1/26 | 2230 | 57.5 3.3 | 75 1 | 49.8 2.7 | 0.5 0.8 | NNW | 334 | 3.0 0.1 | 0.00 | 0.00 | 74.8 0.4 | 57.5 2.5 |
| Borreo (Soda Canyon) | 9/1/26 | 2230 | 53.0 4.7 | 84 4 | 48.5 3.1 | 0.7 0.6 | N | 6 | 2.2 1.1 | 0.00 | 0.00 | 74.0 0.7 | 52.8 0.2 |
| Wappo Hill Floor | 9/1/26 | 2230 | 57.1 3.5 | 78 3 | 50.4 2.2 | 1.0 0.3 | NW | 321 | 2.1 0.0 | 0.00 | 0.00 | 76.2 0.2 | 56.5 0.7 |
| Wappo Hill | 9/1/26 | 2230 | 59.8 1.5 | 74 1 | 51.4 1.7 | 2.8 0.0 | NE | 54 | 4.4 1.9 | 0.00 | 0.00 | 76.6 0.7 | 58.8 3.5 |
| Stags Leap Dist (Chimney Rock) | 9/1/26 | 2230 | 57.2 2.9 | 81 1 | 51.4 2.6 | 0.5 0.5 | E | 90 | 2.5 0.3 | 0.00 | 0.00 | 76.8 1.1 | 56.7 0.8 |
| Stags Leap Dist (Silverado Vineyards) | 9/1/26 | 2230 | 58.4 2.6 | 74 0 | 50.4 2.4 | 0.6 0.4 | SSE | 162 | 2.2 0.8 | 0.00 | 0.00 | 77.9 2.4 | 57.7 2.6 |
| Yountville-SE (Ranch 85) | 9/1/26 | 2230 | 57.4 1.3 | 77 4 | 50.4 2.8 | 0.0 1.0 | N | 0 | 0.0 3.3 | 0.00 | 0.00 | 77.9 2.3 | 57.0 1.5 |
| Yountville-South (Ranch 87) | 9/1/26 | 2230 | 56.8 1.6 | 80 2 | 50.6 2.2 | 0.3 0.4 | NW | 325 | 1.6 1.3 | 0.00 | 0.00 | 76.5 0.8 | 56.1 0.3 |
| Max | 63.1 | 87 | 54.6 | 4.3 | - | 7.3 | 0.00 | 0.00 | 78.9 | 60.2 | ||
| Avg | 59.2 | 77 | 51.6 | 1.1 | - | 3.0 | 0.00 | - | - | - | ||
| Min | 49.9 | 69 | 46.3 | 0.0 | - | 0.0 | 0.00 | 0.00 | 70.0 | 49.7 |
| Station | Date | Time | Temp (°F) | RH (%) | Dew Pt (°F) | Wind Spd (mph) | Wind Dir (°) | Wind Gust (mph) | Latest Rain (In) | Daily Rain (In) | Daily Max Temp (°F) | Daily Min Temp (°F) |
|---|---|---|---|---|---|---|---|---|---|---|---|---|
| Mt. Veeder | 9/1/26 | 2230 | 56.1 1.1 | 81 9 | 50.4 1.8 | 0.4 1.0 | W | 272 | 2.1 2.4 | 0.00 | 0.00 | 68.8 0.6 | 54.0 5.1 |
| Soda Canyon | 9/1/26 | 2230 | 53.2 2.4 | 86 3 | 49.0 3.3 | 0.1 0.1 | NE | 56 | 1.2 0.7 | 0.00 | 0.00 | 75.8 1.1 | 53.0 0.0 |
| Big Ranch Rd | 9/1/26 | 2230 | 59.1 1.5 | - | - | - | - | - | - | - | 78.3 1.1 | 58.5 2.4 |
| Oak Knoll-East (Ranch 53) | 9/1/26 | 2230 | 60.7 0.0 | 76 1 | 53.0 0.3 | 1.5 1.5 | SSW | 200 | 4.7 4.7 | 0.00 | 0.00 | 76.7 1.0 | 58.7 3.3 |
| Napa-NW (Ranch 54) | 9/1/26 | 2230 | 60.0 0.2 | 78 0 | 53.3 0.1 | 0.2 0.0 | SSW | 199 | 2.1 0.7 | 0.00 | 0.00 | 77.7 1.3 | 58.6 8.2 |
| Frisinger Napa-NW | 9/1/26 | 2230 | 60.3 0.1 | 78 1 | 53.4 0.1 | 2.8 1.9 | SSW | 209 | 4.7 1.5 | 0.00 | 0.00 | 75.7 0.6 | 57.6 7.7 |
| Napa-North (Ranch 29) | 9/1/26 | 2230 | 60.9 0.3 | 78 1 | 54.1 0.2 | 2.8 0.6 | SSW | 192 | 5.9 0.8 | 0.00 | 0.00 | 75.6 0.1 | 58.2 2.5 |
| Mount George (Napa East) | 9/1/26 | 2230 | 57.0 4.0 | 84 8 | 52.3 1.2 | 0.5 1.1 | ESE | 112 | 2.8 2.4 | 0.00 | 0.00 | 73.5 0.2 | 56.9 2.2 |
| Napa-East (Palmaz 300') | 9/1/26 | 2230 | 57.2 3.9 | 86 9 | 53.2 0.6 | 0.0 0.0 | N | 0 | 0.0 0.0 | 0.00 | 0.00 | 76.9 1.4 | 57.2 1.7 |
| Napa-East (Palmaz 1200') | 7/4/26 | 0630 | 49.8 0.1 | 72 2 | 40.8 1.0 | 0.2 0.5 | E | 79 | 2.0 0.4 | - | - | 51.0 1.7 | 48.0 0.9 |
| Napa-East (Palmaz 1400') | 9/1/26 | 2230 | 55.6 0.4 | 93 1 | 53.7 0.0 | 1.8 1.0 | SSW | 196 | 8.7 0.2 | 0.00 | 0.00 | 71.0 2.5 | 53.1 3.0 |
| Wooden Valley | 9/1/26 | 2230 | 58.7 0.3 | 78 0 | 51.8 0.2 | 2.4 0.4 | NNE | 33 | 4.7 2.2 | 0.00 | 0.00 | 72.2 0.0 | 57.0 3.9 |
| Napa-West Upper (Truchard) | 9/1/26 | 2230 | 60.1 0.4 | 81 0 | 54.4 0.3 | 0.0 6.0 | N | 0 | 0.0 9.9 | 0.00 | 0.00 | 77.3 0.0 | 55.4 2.5 |
| Napa-West Lower (Truchard) | 9/1/26 | 2230 | 58.6 2.6 | 82 3 | 52.9 1.5 | - | - | - | - | - | 77.4 1.3 | 53.6 8.7 |
| Sunset Rd | 9/1/26 | 2230 | 61.3 0.5 | 76 3 | 53.6 0.4 | 0.6 4.9 | SSE | 157 | 4.5 6.5 | 0.00 | 0.00 | 74.6 0.4 | 55.6 7.1 |
| Napa-South (Toyon Farms) | 9/1/26 | 2230 | 60.2 1.4 | 87 3 | 56.3 0.5 | 0.5 5.9 | NE | 40 | 2.2 8.7 | 0.00 | 0.00 | 75.4 0.7 | 56.7 3.4 |
| Dealy Lane (Ranch 80) | 9/1/26 | 2245 | 60.3 1.0 | 80 2 | 54.2 0.2 | 0.7 1.3 | E | 91 | 2.4 3.4 | 0.00 | 0.00 | 76.0 0.9 | 52.8 2.4 |
| Carneros (Saintsbury) | 9/1/26 | 2230 | 59.6 1.4 | 82 3 | 54.1 0.4 | 1.0 6.2 | E | 92 | 2.2 11.0 | 0.00 | 0.00 | 74.4 0.5 | 55.1 5.7 |
| Suscol Lower (Ranch 35) | 9/1/26 | 2230 | 58.3 3.5 | 83 8 | 53.2 0.7 | 2.1 4.6 | ENE | 76 | 4.7 7.9 | 0.00 | 0.00 | 75.2 0.7 | 56.7 2.7 |
| Suscol Mtn (Ranch 93) | 9/1/26 | 2230 | 57.0 0.7 | 90 4 | 54.1 0.4 | 5.7 9.6 | NW | 318 | 8.4 13.1 | 0.00 | 0.00 | 75.4 1.1 | 54.3 2.9 |
| Suscol Upper (Ranch 92) | 9/1/26 | 2230 | 58.3 0.5 | 87 4 | 54.3 0.7 | 2.5 5.4 | SW | 224 | 6.1 9.4 | 0.00 | 0.00 | 71.8 1.7 | 55.2 2.8 |
| Carneros (Mitsuko) | 9/1/26 | 2230 | 59.8 2.3 | - | - | - | - | - | - | - | 75.2 0.2 | 57.0 11.0 |
| Sugarloaf West | 9/1/26 | 2230 | 57.8 4.5 | 87 9 | 54.1 1.6 | 1.4 4.6 | ENE | 60 | 3.5 11.3 | 0.00 | 0.00 | 72.8 0.4 | 57.5 2.4 |
| Stanly (Ranch 45) | 9/1/26 | 2230 | 59.2 3.1 | 82 7 | 53.8 0.5 | 0.7 5.0 | NW | 310 | 2.7 10.5 | 0.00 | 0.00 | 74.0 0.4 | 57.4 4.1 |
| Carneros (Las Amigas Rd) | 9/1/26 | 2230 | 60.3 1.8 | - | - | - | - | - | - | - | 73.4 0.1 | 57.4 6.3 |
| Carneros (Milton Rd) | 9/1/26 | 2230 | 59.8 3.0 | 81 7 | 54.0 0.5 | - | - | - | 0.00 | 0.00 | 74.2 1.0 | 57.7 6.0 |
| Carneros (Ranch 71) | 9/1/26 | 2230 | 60.1 0.4 | 82 1 | 54.7 0.0 | 4.0 6.1 | W | 275 | 5.8 10.9 | 0.00 | 0.00 | 74.4 2.2 | 56.7 5.5 |
| Carneros Upper (Ranch 81) | 9/1/26 | 2230 | 60.4 0.2 | 81 0 | 54.4 0.1 | 7.6 5.3 | WSW | 251 | 10.7 8.5 | - | - | 73.8 0.8 | 56.9 4.8 |
| Carneros Lower (Ranch 81) | 9/1/26 | 2230 | 59.7 2.1 | 85 6 | 55.2 0.0 | 0.3 0.4 | SSE | 167 | 1.8 2.7 | 0.00 | 0.00 | 78.6 1.0 | 57.1 7.0 |
| Toyon Remote 1 | 9/1/26 | 2230 | 60.5 1.1 | - | - | - | - | - | - | - | 78.6 1.3 | 53.8 53.8 |
| Toyon Remote 2 | 9/1/26 | 2230 | 59.5 2.7 | - | - | - | - | - | - | - | 75.2 0.0 | 52.6 2.0 |
| Toyon Remote 3 | 9/1/26 | 2230 | 58.7 3.3 | - | - | - | - | - | - | - | 78.9 0.9 | 52.5 4.4 |
| Max | 61.3 | 93 | 56.3 | 7.6 | - | 10.7 | 0.00 | 0.00 | 78.9 | 58.7 | ||
| Avg | 59.0 | 83 | 53.5 | 1.7 | - | 4.0 | 0.00 | - | - | - | ||
| Min | 53.2 | 76 | 49.0 | 0.0 | - | 0.0 | 0.00 | 0.00 | 68.8 | 52.5 |